createdAt,value
2019-02-25T00:00:42.996Z,11.30
2019-02-25T00:01:43.000Z,11.40
2019-02-25T00:02:42.979Z,12.10
2019-02-25T00:03:42.966Z,13.10
2019-02-25T00:04:42.960Z,11.80
2019-02-25T00:05:42.947Z,11.50
2019-02-25T00:06:42.947Z,11.10
2019-02-25T00:07:42.933Z,9.60
2019-02-25T00:08:42.913Z,11.00
2019-02-25T00:09:42.902Z,11.70
2019-02-25T00:10:42.893Z,10.40
2019-02-25T00:11:42.886Z,13.40
2019-02-25T00:12:42.872Z,8.70
2019-02-25T00:13:42.881Z,11.20
2019-02-25T00:14:42.849Z,10.90
2019-02-25T00:15:42.836Z,12.10
2019-02-25T00:16:42.825Z,10.00
2019-02-25T00:17:42.824Z,10.80
2019-02-25T00:18:42.810Z,11.50
2019-02-25T00:19:42.799Z,11.00
2019-02-25T00:20:42.786Z,14.10
2019-02-25T00:21:42.779Z,12.80
2019-02-25T00:22:42.763Z,10.20
2019-02-25T00:23:42.746Z,10.20
2019-02-25T00:24:42.740Z,9.90
2019-02-25T00:25:42.734Z,10.60
2019-02-25T00:26:42.719Z,10.40
2019-02-25T00:27:42.704Z,10.30
2019-02-25T00:28:42.695Z,12.40
2019-02-25T00:29:42.683Z,10.50
2019-02-25T00:30:42.689Z,10.60
2019-02-25T00:31:42.666Z,14.80
2019-02-25T00:32:42.653Z,10.70
2019-02-25T00:33:42.640Z,10.00
2019-02-25T00:34:42.631Z,12.20
2019-02-25T00:35:42.627Z,12.20
2019-02-25T00:36:42.618Z,10.60
2019-02-25T00:37:42.605Z,10.50
2019-02-25T00:38:42.583Z,10.30
2019-02-25T00:39:42.577Z,11.80
2019-02-25T00:40:42.565Z,15.80
2019-02-25T00:41:42.554Z,12.40
2019-02-25T00:42:42.542Z,12.60
2019-02-25T00:43:42.533Z,10.30
2019-02-25T00:44:42.519Z,10.30
2019-02-25T00:45:42.508Z,12.20
2019-02-25T00:46:42.520Z,15.20
2019-02-25T00:47:42.481Z,12.20
2019-02-25T00:48:42.475Z,10.70
2019-02-25T00:49:42.462Z,11.20
2019-02-25T00:50:42.457Z,11.60
2019-02-25T00:51:42.443Z,10.60
2019-02-25T00:52:42.451Z,8.90
2019-02-25T00:53:42.425Z,9.50
2019-02-25T00:54:42.412Z,11.40
2019-02-25T00:55:42.395Z,12.00
2019-02-25T00:56:42.388Z,10.80
2019-02-25T00:57:42.385Z,12.60
2019-02-25T00:58:42.382Z,12.50
2019-02-25T00:59:42.350Z,12.40
2019-02-25T01:00:42.345Z,12.60
2019-02-25T01:01:42.350Z,10.80
2019-02-25T01:02:42.324Z,13.80
2019-02-25T01:03:42.329Z,14.00
2019-02-25T01:04:42.303Z,11.80
2019-02-25T01:05:42.290Z,12.50
2019-02-25T01:06:42.280Z,10.30
2019-02-25T01:07:42.285Z,11.90
2019-02-25T01:08:42.259Z,10.90
2019-02-25T01:09:42.248Z,12.90
2019-02-25T01:10:42.232Z,11.50
2019-02-25T01:11:42.230Z,11.40
2019-02-25T01:12:42.212Z,11.80
2019-02-25T01:13:42.194Z,10.20
2019-02-25T01:14:42.199Z,12.60
2019-02-25T01:15:42.192Z,12.40
2019-02-25T01:16:42.172Z,10.90
2019-02-25T01:17:42.160Z,10.60
2019-02-25T01:18:42.146Z,13.50
2019-02-25T01:19:42.133Z,11.70
2019-02-25T01:20:42.124Z,12.90
2019-02-25T01:21:42.117Z,10.90
2019-02-25T01:22:42.104Z,8.00
2019-02-25T01:23:42.113Z,10.70
2019-02-25T01:24:42.085Z,12.70
2019-02-25T01:25:42.074Z,12.20
2019-02-25T01:26:42.053Z,12.50
2019-02-25T01:27:42.064Z,12.40
2019-02-25T01:28:42.034Z,9.60
2019-02-25T01:29:42.025Z,12.20
2019-02-25T01:30:42.016Z,10.60
2019-02-25T01:31:42.034Z,8.30
2019-02-25T01:32:41.993Z,9.90
2019-02-25T01:33:41.981Z,8.90
2019-02-25T01:34:41.962Z,10.10
2019-02-25T01:35:41.973Z,10.30
2019-02-25T01:36:41.968Z,9.50
2019-02-25T01:37:41.943Z,9.10
2019-02-25T01:38:41.936Z,10.10
2019-02-25T01:39:41.909Z,12.00
2019-02-25T01:40:41.923Z,9.00
2019-02-25T01:41:41.888Z,9.90
2019-02-25T01:42:41.886Z,10.50
2019-02-25T01:43:41.870Z,9.50
2019-02-25T01:44:41.870Z,11.10
2019-02-25T01:45:41.869Z,11.50
2019-02-25T01:46:41.864Z,10.90
2019-02-25T01:47:41.835Z,11.90
2019-02-25T01:48:41.812Z,10.40
2019-02-25T01:49:41.800Z,8.90
2019-02-25T01:50:41.794Z,9.60
2019-02-25T01:51:41.795Z,10.90
2019-02-25T01:52:41.768Z,10.50
2019-02-25T01:53:41.761Z,12.60
2019-02-25T01:54:41.747Z,10.80
2019-02-25T01:55:41.754Z,14.60
2019-02-25T01:56:41.723Z,11.20
2019-02-25T01:57:41.709Z,14.40
2019-02-25T01:58:41.703Z,11.20
2019-02-25T01:59:41.692Z,8.80
2019-02-25T02:00:41.712Z,12.50
2019-02-25T02:01:41.681Z,13.40
2019-02-25T02:02:41.658Z,11.30
2019-02-25T02:03:41.648Z,10.30
2019-02-25T02:04:41.642Z,12.40
2019-02-25T02:05:41.627Z,10.30
2019-02-25T02:06:41.617Z,11.30
2019-02-25T02:07:41.598Z,12.30
2019-02-25T02:08:41.598Z,13.10
2019-02-25T02:09:41.579Z,12.20
2019-02-25T02:10:41.568Z,11.20
2019-02-25T02:11:41.553Z,9.10
2019-02-25T02:12:41.545Z,13.40
2019-02-25T02:13:41.537Z,11.70
2019-02-25T02:14:41.534Z,12.70
2019-02-25T02:15:41.514Z,12.00
2019-02-25T02:16:41.498Z,12.10
2019-02-25T02:17:41.496Z,12.40
2019-02-25T02:18:41.479Z,14.60
2019-02-25T02:19:41.461Z,9.60
2019-02-25T02:20:41.454Z,11.00
2019-02-25T02:21:41.446Z,11.00
2019-02-25T02:22:41.424Z,11.50
2019-02-25T02:23:41.422Z,10.00
2019-02-25T02:24:41.417Z,11.30
2019-02-25T02:25:41.398Z,13.80
2019-02-25T02:26:41.389Z,11.20
2019-02-25T02:27:41.378Z,10.30
2019-02-25T02:28:41.372Z,11.70
2019-02-25T02:29:41.363Z,13.10
2019-02-25T02:30:41.339Z,12.10
2019-02-25T02:31:41.328Z,9.30
2019-02-25T02:32:41.318Z,12.50
2019-02-25T02:33:41.328Z,13.10
2019-02-25T02:34:41.296Z,11.40
2019-02-25T02:35:41.286Z,10.60
2019-02-25T02:36:41.307Z,11.50
2019-02-25T02:37:41.264Z,10.80
2019-02-25T02:38:41.252Z,12.50
2019-02-25T02:39:41.237Z,11.70
2019-02-25T02:40:41.235Z,11.40
2019-02-25T02:41:41.219Z,10.00
2019-02-25T02:42:41.206Z,10.70
2019-02-25T02:43:41.196Z,12.80
2019-02-25T02:44:41.186Z,10.60
2019-02-25T02:45:41.179Z,12.70
2019-02-25T02:46:41.163Z,10.80
2019-02-25T02:47:41.167Z,11.10
2019-02-25T02:48:41.142Z,12.10
2019-02-25T02:49:41.132Z,13.40
2019-02-25T02:50:41.116Z,11.00
2019-02-25T02:51:41.102Z,10.10
2019-02-25T02:52:41.097Z,10.80
2019-02-25T02:53:41.089Z,11.70
2019-02-25T02:54:41.069Z,10.70
2019-02-25T02:55:41.063Z,11.50
2019-02-25T02:56:41.055Z,13.00
2019-02-25T02:57:41.048Z,10.70
2019-02-25T02:58:41.028Z,14.10
2019-02-25T02:59:41.010Z,11.10
2019-02-25T03:00:41.001Z,9.90
2019-02-25T03:01:40.995Z,14.40
2019-02-25T03:02:40.972Z,10.40
2019-02-25T03:03:40.979Z,12.10
2019-02-25T03:04:40.959Z,12.60
2019-02-25T03:05:40.955Z,9.60
2019-02-25T03:06:40.932Z,11.10
2019-02-25T03:07:40.927Z,10.80
2019-02-25T03:08:40.917Z,10.00
2019-02-25T03:09:40.907Z,10.00
2019-02-25T03:10:40.890Z,10.80
2019-02-25T03:11:40.882Z,11.80
2019-02-25T03:12:40.865Z,12.70
2019-02-25T03:13:40.854Z,12.20
2019-02-25T03:14:40.849Z,13.00
2019-02-25T03:15:40.839Z,10.90
2019-02-25T03:16:40.831Z,16.90
2019-02-25T03:17:40.817Z,14.30
2019-02-25T03:18:40.808Z,11.90
2019-02-25T03:19:40.791Z,11.20
2019-02-25T03:20:40.784Z,13.40
2019-02-25T03:21:40.779Z,11.90
2019-02-25T03:22:40.755Z,11.40
2019-02-25T03:23:40.745Z,12.60
2019-02-25T03:24:40.753Z,10.30
2019-02-25T03:25:40.734Z,12.50
2019-02-25T03:26:40.702Z,14.40
2019-02-25T03:27:40.702Z,11.40
2019-02-25T03:28:40.685Z,12.40
2019-02-25T03:29:40.679Z,11.90
2019-02-25T03:30:40.667Z,10.20
2019-02-25T03:31:40.653Z,12.20
2019-02-25T03:32:40.649Z,12.30
2019-02-25T03:33:40.623Z,10.60
2019-02-25T03:34:40.634Z,11.40
2019-02-25T03:35:40.611Z,14.80
2019-02-25T03:36:40.597Z,15.00
2019-02-25T03:37:40.603Z,12.60
2019-02-25T03:38:40.567Z,11.70
2019-02-25T03:39:40.577Z,12.80
2019-02-25T03:40:40.576Z,14.40
2019-02-25T03:41:40.544Z,14.80
2019-02-25T03:42:40.527Z,10.50
2019-02-25T03:43:40.512Z,10.30
2019-02-25T03:44:40.517Z,12.50
2019-02-25T03:45:40.490Z,11.40
2019-02-25T03:46:40.496Z,10.70
2019-02-25T03:47:40.472Z,12.10
2019-02-25T03:48:40.457Z,10.40
2019-02-25T03:49:40.448Z,16.40
2019-02-25T03:50:40.436Z,14.60
2019-02-25T03:51:40.421Z,19.80
2019-02-25T03:52:40.411Z,22.60
2019-02-25T03:53:40.408Z,30.50
2019-02-25T03:54:40.394Z,21.00
2019-02-25T03:55:40.376Z,21.80
2019-02-25T03:56:40.366Z,21.20
2019-02-25T03:57:40.352Z,21.00
2019-02-25T03:58:40.338Z,27.20
2019-02-25T03:59:40.342Z,34.00
2019-02-25T04:00:40.322Z,20.40
2019-02-25T04:01:40.310Z,14.20
2019-02-25T04:02:40.296Z,12.80
2019-02-25T04:03:40.292Z,12.70
2019-02-25T04:04:40.273Z,12.50
2019-02-25T04:05:40.265Z,11.30
2019-02-25T04:06:40.261Z,11.80
2019-02-25T04:07:40.241Z,11.20
2019-02-25T04:08:40.225Z,11.30
2019-02-25T04:09:40.215Z,11.20
2019-02-25T04:10:40.205Z,11.30
2019-02-25T04:11:40.196Z,11.30
2019-02-25T04:12:40.197Z,9.20
2019-02-25T04:13:40.167Z,12.20
2019-02-25T04:14:40.165Z,11.30
2019-02-25T04:15:40.143Z,9.70
2019-02-25T04:16:40.131Z,15.30
2019-02-25T04:17:40.134Z,9.90
2019-02-25T04:18:40.116Z,12.20
2019-02-25T04:19:40.102Z,13.20
2019-02-25T04:20:40.092Z,11.80
2019-02-25T04:21:40.077Z,12.20
2019-02-25T04:22:40.071Z,12.50
2019-02-25T04:23:40.049Z,12.50
2019-02-25T04:24:40.047Z,13.90
2019-02-25T04:25:40.033Z,11.90
2019-02-25T04:26:40.022Z,12.40
2019-02-25T04:27:40.008Z,12.30
2019-02-25T04:28:39.989Z,11.50
2019-02-25T04:29:39.992Z,13.60
2019-02-25T04:30:39.975Z,12.90
2019-02-25T04:31:39.966Z,14.60
2019-02-25T04:32:39.948Z,11.50
2019-02-25T04:33:39.941Z,13.00
2019-02-25T04:34:39.929Z,14.40
2019-02-25T04:35:39.919Z,10.60
2019-02-25T04:36:39.911Z,10.90
2019-02-25T04:37:39.895Z,11.50
2019-02-25T04:38:39.890Z,12.00
2019-02-25T04:39:39.881Z,10.50
2019-02-25T04:40:39.862Z,11.00
2019-02-25T04:41:39.846Z,9.80
2019-02-25T04:42:39.836Z,12.40
2019-02-25T04:43:39.826Z,10.80
2019-02-25T04:44:39.822Z,9.90
2019-02-25T04:45:39.805Z,10.80
2019-02-25T04:46:39.803Z,12.90
2019-02-25T04:47:39.784Z,10.00
2019-02-25T04:48:39.766Z,13.10
2019-02-25T04:49:39.761Z,12.10
2019-02-25T04:50:39.741Z,11.80
2019-02-25T04:51:39.727Z,11.90
2019-02-25T04:52:39.727Z,14.40
2019-02-25T04:53:39.727Z,12.60
2019-02-25T04:54:39.697Z,14.70
2019-02-25T04:55:39.696Z,11.50
2019-02-25T04:56:39.673Z,8.60
2019-02-25T04:57:39.665Z,14.80
2019-02-25T04:58:39.652Z,11.50
2019-02-25T04:59:39.629Z,12.80
2019-02-25T05:00:39.620Z,14.50
2019-02-25T05:01:39.614Z,11.10
2019-02-25T05:02:39.605Z,11.10
2019-02-25T05:03:39.594Z,9.90
2019-02-25T05:04:39.581Z,14.50
2019-02-25T05:05:39.570Z,9.70
2019-02-25T05:06:39.576Z,11.60
2019-02-25T05:07:39.553Z,14.40
2019-02-25T05:08:39.544Z,13.80
2019-02-25T05:09:39.520Z,12.70
2019-02-25T05:10:39.509Z,10.30
2019-02-25T05:11:39.506Z,11.20
2019-02-25T05:12:39.492Z,12.90
2019-02-25T05:13:39.485Z,9.40
2019-02-25T05:14:39.457Z,12.00
2019-02-25T05:15:39.453Z,11.40
2019-02-25T05:16:40.098Z,11.50
2019-02-25T05:17:39.435Z,10.20
2019-02-25T05:18:39.418Z,12.00
2019-02-25T05:19:39.406Z,12.00
2019-02-25T05:20:39.400Z,11.20
2019-02-25T05:21:39.375Z,12.20
2019-02-25T05:22:39.365Z,12.40
2019-02-25T05:23:39.363Z,14.50
2019-02-25T05:24:39.373Z,10.00
2019-02-25T05:25:39.334Z,10.90
2019-02-25T05:26:39.327Z,11.40
2019-02-25T05:27:39.311Z,11.20
2019-02-25T05:28:39.295Z,9.70
2019-02-25T05:29:39.289Z,11.80
2019-02-25T05:30:39.326Z,12.30
2019-02-25T05:31:39.267Z,11.70
2019-02-25T05:32:39.253Z,10.70
2019-02-25T05:33:39.243Z,11.70
2019-02-25T05:34:39.228Z,10.10
2019-02-25T05:35:39.227Z,14.30
2019-02-25T05:36:39.211Z,8.90
2019-02-25T05:37:39.194Z,15.80
2019-02-25T05:38:39.180Z,12.00
2019-02-25T05:39:39.167Z,10.60
2019-02-25T05:40:39.164Z,14.00
2019-02-25T05:41:39.167Z,14.20
2019-02-25T05:42:39.135Z,11.90
2019-02-25T05:43:39.132Z,10.70
2019-02-25T05:44:39.119Z,12.30
2019-02-25T05:45:39.105Z,13.10
2019-02-25T05:46:39.097Z,12.30
2019-02-25T05:47:39.080Z,11.00
2019-02-25T05:48:39.066Z,10.90
2019-02-25T05:49:39.048Z,11.80
2019-02-25T05:50:39.904Z,11.20
2019-02-25T05:51:39.028Z,14.80
2019-02-25T05:52:39.021Z,11.50
2019-02-25T05:53:39.005Z,10.20
2019-02-25T05:54:38.992Z,13.60
2019-02-25T05:55:38.988Z,13.50
2019-02-25T05:56:38.974Z,16.20
2019-02-25T05:57:38.964Z,11.80
2019-02-25T05:58:38.961Z,11.00
2019-02-25T05:59:38.929Z,10.10
2019-02-25T06:00:38.917Z,14.90
2019-02-25T06:01:38.947Z,10.60
2019-02-25T06:02:38.897Z,12.90
2019-02-25T06:03:38.880Z,11.70
2019-02-25T06:04:38.883Z,16.80
2019-02-25T06:05:38.868Z,12.40
2019-02-25T06:06:38.853Z,14.20
2019-02-25T06:07:38.845Z,9.90
2019-02-25T06:08:38.844Z,11.10
2019-02-25T06:09:38.827Z,12.00
2019-02-25T06:10:38.808Z,12.20
2019-02-25T06:11:38.793Z,14.80
2019-02-25T06:12:38.809Z,11.70
2019-02-25T06:13:38.763Z,13.80
2019-02-25T06:14:38.754Z,18.00
2019-02-25T06:15:38.782Z,11.80
2019-02-25T06:16:38.787Z,11.80
2019-02-25T06:17:38.723Z,12.90
2019-02-25T06:18:38.709Z,12.00
2019-02-25T06:19:38.716Z,11.20
2019-02-25T06:20:38.689Z,14.30
2019-02-25T06:21:38.681Z,13.50
2019-02-25T06:22:38.676Z,12.60
2019-02-25T06:23:38.668Z,13.00
2019-02-25T06:24:38.652Z,11.50
2019-02-25T06:25:38.648Z,12.70
2019-02-25T06:26:38.811Z,11.80
2019-02-25T06:27:38.617Z,14.40
2019-02-25T06:28:38.597Z,9.50
2019-02-25T06:29:38.589Z,14.10
2019-02-25T06:30:38.572Z,14.20
2019-02-25T06:31:38.559Z,11.50
2019-02-25T06:32:38.563Z,13.60
2019-02-25T06:33:38.540Z,12.60
2019-02-25T06:34:38.522Z,23.50
2019-02-25T06:35:38.523Z,13.20
2019-02-25T06:36:38.498Z,11.70
2019-02-25T06:37:38.488Z,13.80
2019-02-25T06:38:38.488Z,14.20
2019-02-25T06:39:38.463Z,15.20
2019-02-25T06:40:38.472Z,12.80
2019-02-25T06:41:38.449Z,11.10
2019-02-25T06:42:38.432Z,13.30
2019-02-25T06:43:38.418Z,13.50
2019-02-25T06:44:38.418Z,17.20
2019-02-25T06:45:38.415Z,11.70
2019-02-25T06:46:38.392Z,13.80
2019-02-25T06:47:38.373Z,13.40
2019-02-25T06:48:38.370Z,13.30
2019-02-25T06:49:38.409Z,14.30
2019-02-25T06:50:38.339Z,12.90
2019-02-25T06:51:38.323Z,12.80
2019-02-25T06:52:38.345Z,13.50
2019-02-25T06:53:38.308Z,13.10
2019-02-25T06:54:38.287Z,12.60
2019-02-25T06:55:38.336Z,15.20
2019-02-25T06:56:38.262Z,12.10
2019-02-25T06:57:38.248Z,11.70
2019-02-25T06:58:38.243Z,11.40
2019-02-25T06:59:38.238Z,12.40
2019-02-25T07:00:38.230Z,15.40
2019-02-25T07:01:38.466Z,12.10
2019-02-25T07:02:38.492Z,13.80
2019-02-25T07:03:38.178Z,14.80
2019-02-25T07:04:38.174Z,14.40
2019-02-25T07:05:38.175Z,14.70
2019-02-25T07:06:38.159Z,12.10
2019-02-25T07:07:38.138Z,13.60
2019-02-25T07:08:38.125Z,11.80
2019-02-25T07:09:38.974Z,14.50
2019-02-25T07:10:38.109Z,14.80
2019-02-25T07:11:38.089Z,17.90
2019-02-25T07:12:38.076Z,13.80
2019-02-25T07:13:38.071Z,16.00
2019-02-25T07:14:38.058Z,18.30
2019-02-25T07:15:38.045Z,16.90
2019-02-25T07:16:38.056Z,13.80
2019-02-25T07:17:38.030Z,14.10
2019-02-25T07:18:38.027Z,17.90
2019-02-25T07:19:38.001Z,15.40
2019-02-25T07:20:37.989Z,11.30
2019-02-25T07:21:37.990Z,10.40
2019-02-25T07:22:37.972Z,14.00
2019-02-25T07:23:37.958Z,13.90
2019-02-25T07:24:37.961Z,12.00
2019-02-25T07:25:37.940Z,12.70
2019-02-25T07:26:37.921Z,17.40
2019-02-25T07:27:37.909Z,14.00
2019-02-25T07:28:37.892Z,11.70
2019-02-25T07:29:37.895Z,14.50
2019-02-25T07:30:37.872Z,14.00
2019-02-25T07:31:37.863Z,11.60
2019-02-25T07:32:39.443Z,13.50
2019-02-25T07:33:37.846Z,10.70
2019-02-25T07:34:37.823Z,13.60
2019-02-25T07:35:37.812Z,12.40
2019-02-25T07:36:37.805Z,15.20
2019-02-25T07:37:37.795Z,10.60
2019-02-25T07:38:39.773Z,13.60
2019-02-25T07:39:37.767Z,14.70
2019-02-25T07:40:37.754Z,14.40
2019-02-25T07:41:38.285Z,13.30
2019-02-25T07:42:37.728Z,12.60
2019-02-25T07:43:37.728Z,11.70
2019-02-25T07:44:37.719Z,18.20
2019-02-25T07:45:37.706Z,15.80
2019-02-25T07:46:37.694Z,19.40
2019-02-25T07:47:37.683Z,14.60
2019-02-25T07:48:37.673Z,10.00
2019-02-25T07:49:37.663Z,15.10
2019-02-25T07:50:46.775Z,14.00
2019-02-25T07:51:37.646Z,12.10
2019-02-25T07:52:37.631Z,12.00
2019-02-25T07:53:37.615Z,13.80
2019-02-25T07:54:37.606Z,14.20
2019-02-25T07:55:37.608Z,12.30
2019-02-25T07:56:37.588Z,15.00
2019-02-25T07:57:37.583Z,14.70
2019-02-25T07:58:37.575Z,12.40
2019-02-25T07:59:37.556Z,15.30
2019-02-25T08:00:37.542Z,14.60
2019-02-25T08:01:37.528Z,11.50
2019-02-25T08:02:37.516Z,14.20
2019-02-25T08:03:37.515Z,14.00
2019-02-25T08:04:37.503Z,15.00
2019-02-25T08:05:37.495Z,16.50
2019-02-25T08:06:37.499Z,15.40
2019-02-25T08:07:37.490Z,12.90
2019-02-25T08:08:37.467Z,16.40
2019-02-25T08:09:37.449Z,16.20
2019-02-25T08:10:37.443Z,13.50
2019-02-25T08:11:37.424Z,12.70
2019-02-25T08:12:37.412Z,14.00
2019-02-25T08:13:37.411Z,12.90
2019-02-25T08:14:37.398Z,12.80
2019-02-25T08:15:37.398Z,14.30
2019-02-25T08:16:37.383Z,17.20
2019-02-25T08:17:37.373Z,13.70
2019-02-25T08:18:37.362Z,13.00
2019-02-25T08:19:37.364Z,13.40
2019-02-25T08:20:37.339Z,13.90
2019-02-25T08:21:37.324Z,11.60
2019-02-25T08:22:37.321Z,14.90
2019-02-25T08:23:37.311Z,11.30
2019-02-25T08:24:37.303Z,13.40
2019-02-25T08:25:37.296Z,10.60
2019-02-25T08:26:37.279Z,11.40
2019-02-25T08:27:37.273Z,10.40
2019-02-25T08:28:37.268Z,13.80
2019-02-25T08:29:37.253Z,13.60
2019-02-25T08:30:37.245Z,11.30
2019-02-25T08:31:37.240Z,11.10
2019-02-25T08:32:37.221Z,11.60
2019-02-25T08:33:37.219Z,17.00
2019-02-25T08:34:37.210Z,12.30
2019-02-25T08:35:37.196Z,11.30
2019-02-25T08:36:37.635Z,12.50
2019-02-25T08:37:37.192Z,11.10
2019-02-25T08:38:37.165Z,11.40
2019-02-25T08:39:37.161Z,13.30
2019-02-25T08:40:37.165Z,12.30
2019-02-25T08:41:37.136Z,11.10
2019-02-25T08:42:37.135Z,11.30
2019-02-25T08:43:37.109Z,12.20
2019-02-25T08:44:37.108Z,14.30
2019-02-25T08:45:37.125Z,11.40
2019-02-25T08:46:37.089Z,14.50
2019-02-25T08:47:37.078Z,12.40
2019-02-25T08:48:37.071Z,12.70
2019-02-25T08:49:37.061Z,12.00
2019-02-25T08:50:37.051Z,11.90
2019-02-25T08:51:37.039Z,12.80
2019-02-25T08:52:37.030Z,12.70
2019-02-25T08:53:37.024Z,12.90
2019-02-25T08:54:37.008Z,13.50
2019-02-25T08:55:37.006Z,12.40
2019-02-25T08:56:37.000Z,12.80
2019-02-25T08:57:36.984Z,12.10
2019-02-25T08:58:37.021Z,17.00
2019-02-25T08:59:36.961Z,11.80
2019-02-25T09:00:36.958Z,11.20
2019-02-25T09:01:36.965Z,18.50
2019-02-25T09:02:36.936Z,13.00
2019-02-25T09:03:36.924Z,13.10
2019-02-25T09:04:36.916Z,13.10
2019-02-25T09:05:36.911Z,12.00
2019-02-25T09:06:36.904Z,11.40
2019-02-25T09:07:36.892Z,13.30
2019-02-25T09:08:36.884Z,13.20
2019-02-25T09:09:36.875Z,9.80
2019-02-25T09:10:36.864Z,10.10
2019-02-25T09:11:36.849Z,10.90
2019-02-25T09:12:36.846Z,11.10
2019-02-25T09:13:36.840Z,14.90
2019-02-25T09:14:36.827Z,12.10
2019-02-25T09:15:36.817Z,9.50
2019-02-25T09:16:36.807Z,11.20
2019-02-25T09:17:36.795Z,10.90
2019-02-25T09:18:36.805Z,9.60
2019-02-25T09:19:36.781Z,10.60
2019-02-25T09:20:36.774Z,13.50
2019-02-25T09:21:36.764Z,11.20
2019-02-25T09:22:36.756Z,8.70
2019-02-25T09:23:36.755Z,14.40
2019-02-25T09:24:36.736Z,12.00
2019-02-25T09:25:36.720Z,10.70
2019-02-25T09:26:36.718Z,10.10
2019-02-25T09:27:36.708Z,9.50
2019-02-25T09:28:36.697Z,15.00
2019-02-25T09:29:36.690Z,11.70
2019-02-25T09:30:36.685Z,9.30
2019-02-25T09:31:36.682Z,8.70
2019-02-25T09:32:36.667Z,10.20
2019-02-25T09:33:36.660Z,12.20
2019-02-25T09:34:36.642Z,11.30
2019-02-25T09:35:36.640Z,12.00
2019-02-25T09:36:36.632Z,9.60
2019-02-25T09:37:37.324Z,17.00
2019-02-25T09:38:36.628Z,9.40
2019-02-25T09:39:36.604Z,11.10
2019-02-25T09:40:36.597Z,11.00
2019-02-25T09:41:36.591Z,12.90
2019-02-25T09:42:36.596Z,9.20
2019-02-25T09:43:36.574Z,10.40
2019-02-25T09:44:38.031Z,10.50
2019-02-25T09:45:36.555Z,14.70
2019-02-25T09:46:36.551Z,13.90
2019-02-25T09:47:36.545Z,10.60
2019-02-25T09:48:36.528Z,10.10
2019-02-25T09:49:36.523Z,9.90
2019-02-25T09:50:36.529Z,12.20
2019-02-25T09:51:36.506Z,10.50
2019-02-25T09:52:36.521Z,8.20
2019-02-25T09:53:36.490Z,8.70
2019-02-25T09:54:36.482Z,9.80
2019-02-25T09:55:36.470Z,11.90
2019-02-25T09:56:37.372Z,14.20
2019-02-25T09:57:36.452Z,9.20
2019-02-25T09:58:36.439Z,8.20
2019-02-25T09:59:36.450Z,10.20
2019-02-25T10:00:36.435Z,8.00
2019-02-25T10:01:36.426Z,11.00
2019-02-25T10:02:36.405Z,8.60
2019-02-25T10:03:36.417Z,9.20
2019-02-25T10:04:36.397Z,9.30
2019-02-25T10:05:36.394Z,12.80
2019-02-25T10:06:36.378Z,11.80
2019-02-25T10:07:36.370Z,11.30
2019-02-25T10:08:36.379Z,10.70
2019-02-25T10:09:36.352Z,11.00
2019-02-25T10:10:36.341Z,12.40
2019-02-25T10:11:36.370Z,8.60
2019-02-25T10:12:36.343Z,23.40
2019-02-25T10:13:36.332Z,11.70
2019-02-25T10:14:36.319Z,9.50
2019-02-25T10:15:36.320Z,10.40
2019-02-25T10:16:36.317Z,13.50
2019-02-25T10:17:36.306Z,9.90
2019-02-25T10:18:36.288Z,13.00
2019-02-25T10:19:36.274Z,14.20
2019-02-25T10:20:36.287Z,9.10
2019-02-25T10:21:36.273Z,12.00
2019-02-25T10:22:36.253Z,10.40
2019-02-25T10:23:36.246Z,8.90
2019-02-25T10:24:36.243Z,10.40
2019-02-25T10:25:36.231Z,9.50
2019-02-25T10:26:36.234Z,7.20
2019-02-25T10:27:36.233Z,11.60
2019-02-25T10:28:36.218Z,10.60
2019-02-25T10:29:36.211Z,11.80
2019-02-25T10:30:36.195Z,10.60
2019-02-25T10:31:38.096Z,9.60
2019-02-25T10:32:36.177Z,8.50
2019-02-25T10:33:36.172Z,9.30
2019-02-25T10:34:36.177Z,10.60
2019-02-25T10:35:36.157Z,11.10
2019-02-25T10:36:36.153Z,9.40
2019-02-25T10:37:36.909Z,7.90
2019-02-25T10:38:37.582Z,8.30
2019-02-25T10:39:36.130Z,9.00
2019-02-25T10:40:36.138Z,8.40
2019-02-25T10:41:36.116Z,7.90
2019-02-25T10:42:37.698Z,7.80
2019-02-25T10:43:36.580Z,7.70
2019-02-25T10:44:36.524Z,7.20
2019-02-25T10:45:37.201Z,7.90
2019-02-25T10:46:36.077Z,9.30
2019-02-25T10:47:36.073Z,10.30
2019-02-25T10:48:36.072Z,7.80
2019-02-25T10:49:36.060Z,7.00
2019-02-25T10:50:38.418Z,7.10
2019-02-25T10:51:36.930Z,6.50
2019-02-25T10:52:36.039Z,8.80
2019-02-25T10:53:36.029Z,5.80
2019-02-25T10:54:36.031Z,5.30
2019-02-25T10:55:36.018Z,8.10
2019-02-25T10:56:36.015Z,8.80
2019-02-25T10:57:36.001Z,6.30
2019-02-25T10:58:36.125Z,9.40
2019-02-25T10:59:36.827Z,10.80
2019-02-25T11:00:37.808Z,7.40
2019-02-25T11:01:37.516Z,9.40
2019-02-25T11:02:44.026Z,8.80
2019-02-25T11:03:35.959Z,11.20
2019-02-25T11:04:35.950Z,6.80
2019-02-25T11:05:35.947Z,8.40
2019-02-25T11:06:37.579Z,7.60
2019-02-25T11:07:37.314Z,6.50
2019-02-25T11:08:37.370Z,7.20
2019-02-25T11:09:35.913Z,7.30
2019-02-25T11:10:35.910Z,7.70
2019-02-25T11:11:35.906Z,9.60
2019-02-25T11:12:35.903Z,9.10
2019-02-25T11:13:36.700Z,7.30
2019-02-25T11:14:38.323Z,9.00
2019-02-25T11:15:37.448Z,8.20
2019-02-25T11:16:35.873Z,7.80
2019-02-25T11:17:35.861Z,8.50
2019-02-25T11:18:35.860Z,10.70
2019-02-25T11:19:35.855Z,9.20
2019-02-25T11:20:37.658Z,8.90
2019-02-25T11:21:37.520Z,6.40
2019-02-25T11:22:37.620Z,9.70
2019-02-25T11:23:35.832Z,12.20
2019-02-25T11:24:35.847Z,9.00
2019-02-25T11:25:35.819Z,7.30
2019-02-25T11:26:35.814Z,7.20
2019-02-25T11:27:37.403Z,11.40
2019-02-25T11:28:38.435Z,8.40
2019-02-25T11:29:37.854Z,9.80
2019-02-25T11:30:35.781Z,11.60
2019-02-25T11:31:35.780Z,9.20
2019-02-25T11:32:35.766Z,8.80
2019-02-25T11:33:35.774Z,11.10
2019-02-25T11:34:37.576Z,9.40
2019-02-25T11:35:36.711Z,9.30
2019-02-25T11:36:35.747Z,11.40
2019-02-25T11:37:35.745Z,10.30
2019-02-25T11:38:37.436Z,7.80
2019-02-25T11:39:37.245Z,9.60
2019-02-25T11:40:36.545Z,11.10
2019-02-25T11:41:37.107Z,5.70
2019-02-25T11:42:35.708Z,9.20
2019-02-25T11:43:35.708Z,9.20
2019-02-25T11:44:35.700Z,8.70
2019-02-25T11:45:36.451Z,9.70
2019-02-25T11:46:35.687Z,8.40
2019-02-25T11:47:35.695Z,7.40
2019-02-25T11:48:35.676Z,8.40
2019-02-25T11:49:35.667Z,9.50
2019-02-25T11:50:35.660Z,7.60
2019-02-25T11:51:35.670Z,7.10
2019-02-25T11:52:35.667Z,8.60
2019-02-25T11:53:35.645Z,6.80
2019-02-25T11:54:35.636Z,7.90
2019-02-25T11:55:35.633Z,7.00
2019-02-25T11:56:35.633Z,6.50
2019-02-25T11:57:35.626Z,7.50
2019-02-25T11:58:35.617Z,7.80
2019-02-25T11:59:35.614Z,6.70
2019-02-25T12:00:35.605Z,8.90
2019-02-25T12:01:35.599Z,6.30
2019-02-25T12:02:35.597Z,9.50
2019-02-25T12:03:35.593Z,7.70
2019-02-25T12:04:35.582Z,8.00
2019-02-25T12:05:35.581Z,7.40
2019-02-25T12:06:35.573Z,6.90
2019-02-25T12:07:35.563Z,7.10
2019-02-25T12:08:35.603Z,6.30
2019-02-25T12:09:35.555Z,6.70
2019-02-25T12:10:35.546Z,8.30
2019-02-25T12:11:35.544Z,8.00
2019-02-25T12:12:35.550Z,5.10
2019-02-25T12:13:35.543Z,7.30
2019-02-25T12:14:35.552Z,9.30
2019-02-25T12:15:35.540Z,8.10
2019-02-25T12:16:35.515Z,6.10
2019-02-25T12:17:35.518Z,9.60
2019-02-25T12:18:35.510Z,6.50
2019-02-25T12:19:35.508Z,9.10
2019-02-25T12:20:35.507Z,6.00
2019-02-25T12:21:35.485Z,7.60
2019-02-25T12:22:35.494Z,11.10
2019-02-25T12:23:35.488Z,4.80
2019-02-25T12:24:35.473Z,6.90
2019-02-25T12:25:35.470Z,7.40
2019-02-25T12:26:35.473Z,7.50
2019-02-25T12:27:35.454Z,6.20
2019-02-25T12:28:35.459Z,5.60
2019-02-25T12:29:35.506Z,9.70
2019-02-25T12:30:35.460Z,6.50
2019-02-25T12:31:35.424Z,10.00
2019-02-25T12:32:35.432Z,6.00
2019-02-25T12:33:35.440Z,11.10
2019-02-25T12:34:35.420Z,9.10
2019-02-25T12:35:35.430Z,6.50
2019-02-25T12:36:35.404Z,7.30
2019-02-25T12:37:35.404Z,8.10
2019-02-25T12:38:35.400Z,6.80
2019-02-25T12:39:35.390Z,7.80
2019-02-25T12:40:35.384Z,8.60
2019-02-25T12:41:35.393Z,7.80
2019-02-25T12:42:35.378Z,7.90
2019-02-25T12:43:35.389Z,9.00
2019-02-25T12:44:35.381Z,9.20
2019-02-25T12:45:35.373Z,9.70
2019-02-25T12:46:35.349Z,8.20
2019-02-25T12:47:35.354Z,5.70
2019-02-25T12:48:35.346Z,9.80
2019-02-25T12:49:35.351Z,5.60
2019-02-25T12:50:35.332Z,8.10
2019-02-25T12:51:35.338Z,6.90
2019-02-25T12:52:35.320Z,9.60
2019-02-25T12:53:35.327Z,5.70
2019-02-25T12:54:35.315Z,5.50
2019-02-25T12:55:35.310Z,6.60
2019-02-25T12:56:35.304Z,6.90
2019-02-25T12:57:35.298Z,9.40
2019-02-25T12:58:35.291Z,8.50
2019-02-25T12:59:35.305Z,6.00